createdAt,value
2018-03-20T00:01:00.875Z,101630.85
2018-03-20T00:04:04.237Z,101630.23
2018-03-20T00:07:22.095Z,101632.95
2018-03-20T00:10:30.384Z,101630.22
2018-03-20T00:13:33.636Z,101634.49
2018-03-20T00:16:42.450Z,101636.13
2018-03-20T00:19:51.315Z,101633.65
2018-03-20T00:22:55.642Z,101637.15
2018-03-20T00:25:58.920Z,101635.52
2018-03-20T00:29:02.202Z,101643.16
2018-03-20T00:32:07.354Z,101643.50
2018-03-20T00:35:10.580Z,101649.58
2018-03-20T00:38:15.744Z,101650.64
2018-03-20T00:41:24.472Z,101652.76
2018-03-20T00:44:27.720Z,101656.07
2018-03-20T00:47:31.024Z,101661.03
2018-03-20T00:50:34.195Z,101659.33
2018-03-20T00:53:37.428Z,101662.51
2018-03-20T00:56:40.694Z,101658.40
2018-03-20T00:59:43.867Z,101661.70
2018-03-20T01:02:49.199Z,101661.22
2018-03-20T01:05:52.476Z,101663.59
2018-03-20T01:08:55.697Z,101669.53
2018-03-20T01:11:59.874Z,101674.23
2018-03-20T01:15:03.333Z,101674.49
2018-03-20T01:18:06.659Z,101674.77
2018-03-20T01:21:10.970Z,101671.00
2018-03-20T01:24:15.112Z,101667.02
2018-03-20T01:27:18.703Z,101669.13
2018-03-20T01:30:30.044Z,101665.50
2018-03-20T01:33:33.240Z,101664.67
2018-03-20T01:36:36.433Z,101666.87
2018-03-20T01:39:39.650Z,101665.32
2018-03-20T01:42:42.866Z,101670.33
2018-03-20T01:45:56.664Z,101671.21
2018-03-20T01:49:01.840Z,101675.10
2018-03-20T01:52:09.889Z,101684.11
2018-03-20T01:55:13.112Z,101687.28
2018-03-20T01:58:16.316Z,101691.51
2018-03-20T02:01:20.987Z,101685.86
2018-03-20T02:04:24.613Z,101678.77
2018-03-20T02:07:28.793Z,101679.30
2018-03-20T02:10:32.043Z,101678.66
2018-03-20T02:13:40.905Z,101689.47
2018-03-20T02:16:44.112Z,101686.85
2018-03-20T02:19:49.548Z,101683.39
2018-03-20T02:22:57.281Z,101677.70
2018-03-20T02:26:01.438Z,101681.42
2018-03-20T02:29:04.598Z,101684.13
2018-03-20T02:32:11.722Z,101691.92
2018-03-20T02:35:29.792Z,101689.19
2018-03-20T02:38:34.248Z,101698.42
2018-03-20T02:41:40.536Z,101700.41
2018-03-20T02:45:04.421Z,101700.92
2018-03-20T02:48:07.663Z,101694.43
2018-03-20T02:51:12.841Z,101692.10
2018-03-20T02:54:16.085Z,101683.17
2018-03-20T02:57:19.335Z,101690.38
2018-03-20T03:00:22.689Z,101691.54
2018-03-20T03:03:27.061Z,101694.42
2018-03-20T03:06:32.289Z,101696.14
2018-03-20T03:09:35.633Z,101705.54
2018-03-20T03:12:40.864Z,101713.66
2018-03-20T03:15:45.130Z,101713.99
2018-03-20T03:18:48.428Z,101721.71
2018-03-20T03:21:52.792Z,101722.96
2018-03-20T03:24:56.122Z,101723.70
2018-03-20T03:27:59.396Z,101723.67
2018-03-20T03:31:03.675Z,101727.38
2018-03-20T03:34:08.203Z,101728.37
2018-03-20T03:37:12.420Z,101735.29
2018-03-20T03:40:15.760Z,101742.62
2018-03-20T03:43:20.431Z,101750.79
2018-03-20T03:46:24.762Z,101753.57
2018-03-20T03:49:34.072Z,101754.76
2018-03-20T03:52:37.500Z,101750.18
2018-03-20T03:55:41.803Z,101753.98
2018-03-20T03:58:49.297Z,101755.04
2018-03-20T04:01:54.637Z,101755.10
2018-03-20T04:04:57.875Z,101752.57
2018-03-20T04:08:03.157Z,101755.88
2018-03-20T04:11:07.384Z,101764.04
2018-03-20T04:14:10.653Z,101767.20
2018-03-20T04:17:14.000Z,101769.46
2018-03-20T04:20:17.181Z,101784.47
2018-03-20T04:23:20.500Z,101788.12
2018-03-20T04:26:23.707Z,101798.05
2018-03-20T04:29:27.108Z,101795.86
2018-03-20T04:32:30.309Z,101809.57
2018-03-20T04:35:33.662Z,101810.37
2018-03-20T04:38:36.864Z,101810.86
2018-03-20T04:41:40.232Z,101813.14
2018-03-20T04:44:43.560Z,101815.98
2018-03-20T04:47:48.415Z,101814.92
2018-03-20T04:50:55.165Z,101816.57
2018-03-20T04:54:00.624Z,101819.93
2018-03-20T04:57:03.815Z,101826.95
2018-03-20T05:00:08.166Z,101821.52
2018-03-20T05:03:11.509Z,101826.61
2018-03-20T05:06:14.801Z,101826.62
2018-03-20T05:09:19.302Z,101828.61
2018-03-20T05:12:30.465Z,101831.50
2018-03-20T05:15:33.676Z,101828.38
2018-03-20T05:18:38.409Z,101840.21
2018-03-20T05:21:45.123Z,101853.66
2018-03-20T05:24:53.936Z,101853.98
2018-03-20T05:27:57.131Z,101856.02
2018-03-20T05:31:00.629Z,101856.87
2018-03-20T05:34:04.886Z,101859.32
2018-03-20T05:37:08.167Z,101860.88
2018-03-20T05:40:11.689Z,101868.79
2018-03-20T05:43:16.184Z,101876.53
2018-03-20T05:46:19.453Z,101869.34
2018-03-20T05:49:24.547Z,101875.90
2018-03-20T05:52:27.857Z,101885.19
2018-03-20T05:55:32.281Z,101892.29
2018-03-20T05:58:37.633Z,101893.78
2018-03-20T06:01:41.921Z,101893.79
2018-03-20T06:04:45.293Z,101898.34
2018-03-20T06:07:48.547Z,101904.11
2018-03-20T06:10:55.000Z,101911.21
2018-03-20T06:13:58.613Z,101916.40
2018-03-20T06:17:05.130Z,101918.68
2018-03-20T06:20:08.493Z,101919.36
2018-03-20T06:23:11.844Z,101923.64
2018-03-20T06:26:16.223Z,101923.89
2018-03-20T06:29:19.486Z,101922.92
2018-03-20T06:32:22.748Z,101927.91
2018-03-20T06:35:25.998Z,101934.74
2018-03-20T06:38:29.416Z,101935.22
2018-03-20T06:41:32.684Z,101929.57
2018-03-20T06:44:36.917Z,101932.23
2018-03-20T06:47:40.091Z,101932.61
2018-03-20T06:50:44.268Z,101933.42
2018-03-20T06:53:47.538Z,101941.69
2018-03-20T06:56:50.720Z,101942.12
2018-03-20T06:59:53.917Z,101942.71
2018-03-20T07:02:59.081Z,101941.30
2018-03-20T07:06:02.376Z,101930.77
2018-03-20T07:09:06.647Z,101927.24
2018-03-20T07:12:09.841Z,101934.31
2018-03-20T07:15:13.030Z,101932.05
2018-03-20T07:18:16.255Z,101927.54
2018-03-20T07:21:19.447Z,101936.47
2018-03-20T07:24:24.715Z,101944.52
2018-03-20T07:27:28.433Z,101946.52
2018-03-20T07:30:31.775Z,101946.42
2018-03-20T07:33:35.036Z,101951.69
2018-03-20T07:36:40.273Z,101949.53
2018-03-20T07:39:43.554Z,101952.39
2018-03-20T07:42:46.832Z,101958.79
2018-03-20T07:45:52.050Z,101955.60
2018-03-20T07:48:56.173Z,101957.09
2018-03-20T07:52:00.078Z,101957.91
2018-03-20T07:55:03.261Z,101956.30
2018-03-20T07:58:09.511Z,101960.05
2018-03-20T08:01:13.705Z,101957.15
2018-03-20T08:04:16.821Z,101962.81
2018-03-20T08:07:20.971Z,101969.34
2018-03-20T08:10:25.104Z,101961.56
2018-03-20T08:13:30.209Z,101958.40
2018-03-20T08:16:35.374Z,101963.76
2018-03-20T08:19:39.524Z,101967.68
2018-03-20T08:22:44.700Z,101961.38
2018-03-20T08:25:47.903Z,101966.17
2018-03-20T08:28:51.067Z,101960.11
2018-03-20T08:31:55.201Z,101960.88
2018-03-20T08:34:58.915Z,101958.54
2018-03-20T08:38:02.255Z,101955.07
2018-03-20T08:41:06.425Z,101964.86
2018-03-20T08:44:09.632Z,101961.41
2018-03-20T08:47:12.766Z,101965.93
2018-03-20T08:50:15.901Z,101971.69
2018-03-20T08:53:19.092Z,101967.28
2018-03-20T08:56:22.248Z,101964.49
2018-03-20T08:59:26.446Z,101977.98
2018-03-20T09:02:30.640Z,101977.81
2018-03-20T09:05:34.804Z,101977.26
2018-03-20T09:08:38.000Z,101970.37
2018-03-20T09:11:41.295Z,101969.84
2018-03-20T09:14:46.249Z,101961.39
2018-03-20T09:17:49.428Z,101956.03
2018-03-20T09:20:54.615Z,101960.69
2018-03-20T09:23:59.771Z,101971.68
2018-03-20T09:27:03.932Z,101969.87
2018-03-20T09:30:07.043Z,101968.26
2018-03-20T09:33:10.177Z,101961.09
2018-03-20T09:36:13.302Z,101963.72
2018-03-20T09:39:16.460Z,101964.26
2018-03-20T09:42:20.586Z,101968.60
2018-03-20T09:45:23.691Z,101969.15
2018-03-20T09:48:26.816Z,101973.68
2018-03-20T09:51:29.957Z,101976.30
2018-03-20T09:54:34.112Z,101973.08
2018-03-20T09:57:37.216Z,101973.92
2018-03-20T10:00:45.074Z,101970.95
2018-03-20T10:03:49.198Z,101963.94
2018-03-20T10:06:54.400Z,101966.04
2018-03-20T10:09:59.549Z,101964.94
2018-03-20T10:13:02.660Z,101958.13
2018-03-20T10:16:05.837Z,101963.37
2018-03-20T10:19:10.959Z,101958.98
2018-03-20T10:22:14.188Z,101955.81
2018-03-20T10:25:17.311Z,101951.54
2018-03-20T10:28:25.781Z,101958.13
2018-03-20T10:31:34.916Z,101959.70
2018-03-20T10:34:38.060Z,101967.08
2018-03-20T10:37:42.203Z,101970.87
2018-03-20T10:40:45.341Z,101967.93
2018-03-20T10:43:49.524Z,101972.57
2018-03-20T10:46:58.592Z,101980.77
2018-03-20T10:50:25.505Z,101982.96
2018-03-20T10:53:28.665Z,101992.62
2018-03-20T10:56:32.824Z,101988.05
2018-03-20T10:59:36.996Z,102002.08
2018-03-20T11:02:47.544Z,102001.85
2018-03-20T11:05:50.720Z,102006.38
2018-03-20T11:09:01.955Z,102008.11
2018-03-20T11:12:05.161Z,102015.30
2018-03-20T11:15:09.524Z,102020.18
2018-03-20T11:18:12.880Z,102033.67
2018-03-20T11:21:17.081Z,102051.57
2018-03-20T11:24:20.412Z,102056.16
2018-03-20T11:27:25.608Z,102057.91
2018-03-20T11:30:29.220Z,102058.56
2018-03-20T11:33:32.352Z,102072.75
2018-03-20T11:36:36.618Z,102080.39
2018-03-20T11:39:39.825Z,102082.06
2018-03-20T11:42:43.983Z,102082.75
2018-03-20T11:45:47.096Z,102090.19
2018-03-20T11:48:51.256Z,102087.74
2018-03-20T11:51:56.420Z,102084.49
2018-03-20T11:55:00.643Z,102091.06
2018-03-20T11:58:04.731Z,102089.11
2018-03-20T12:01:14.124Z,102086.41
2018-03-20T12:04:17.432Z,102083.09
2018-03-20T12:07:21.572Z,102085.92
2018-03-20T12:10:26.766Z,102084.97
2018-03-20T12:13:29.960Z,102084.74
2018-03-20T12:16:33.205Z,102088.00
2018-03-20T12:19:39.621Z,102090.09
2018-03-20T12:22:43.859Z,102085.74
2018-03-20T12:25:47.992Z,102078.65
2018-03-20T12:28:51.125Z,102083.84
2018-03-20T12:31:56.423Z,102079.39
2018-03-20T12:34:59.653Z,102085.86
2018-03-20T12:38:02.861Z,102089.03
2018-03-20T12:41:07.017Z,102093.50
2018-03-20T12:44:16.652Z,102093.72
2018-03-20T12:47:19.858Z,102098.25
2018-03-20T12:50:23.037Z,102098.17
2018-03-20T12:53:26.654Z,102099.77
2018-03-20T12:56:29.844Z,102094.20
2018-03-20T12:59:33.632Z,102096.07
2018-03-20T13:02:36.761Z,102103.26
2018-03-20T13:05:39.899Z,102103.55
2018-03-20T13:08:44.060Z,102106.07
2018-03-20T13:11:48.244Z,102112.81
2018-03-20T13:14:52.460Z,102117.70
2018-03-20T13:17:55.652Z,102115.90
2018-03-20T13:20:59.917Z,102115.22
2018-03-20T13:24:03.492Z,102123.64
2018-03-20T13:27:06.725Z,102125.33
2018-03-20T13:30:11.053Z,102133.59
2018-03-20T13:33:19.863Z,102133.83
2018-03-20T13:36:25.189Z,102134.37
2018-03-20T13:39:28.544Z,102142.22
2018-03-20T13:42:32.026Z,102139.01
2018-03-20T13:45:35.313Z,102138.48
2018-03-20T13:48:39.527Z,102141.09
2018-03-20T13:51:42.797Z,102140.82
2018-03-20T13:54:46.048Z,102151.11
2018-03-20T13:57:53.557Z,102150.73
2018-03-20T14:00:56.848Z,102148.19
2018-03-20T14:04:00.043Z,102152.61
2018-03-20T14:07:03.276Z,102155.16
2018-03-20T14:10:07.484Z,102154.76
2018-03-20T14:13:11.728Z,102163.27
2018-03-20T14:16:18.615Z,102163.61
2018-03-20T14:19:21.894Z,102167.51
2018-03-20T14:22:25.072Z,102167.92
2018-03-20T14:25:28.284Z,102171.78
2018-03-20T14:28:31.480Z,102173.73
2018-03-20T14:31:41.901Z,102178.43
2018-03-20T14:34:45.368Z,102177.52
2018-03-20T14:37:48.630Z,102176.24
2018-03-20T14:40:51.873Z,102180.66
2018-03-20T14:43:56.132Z,102190.84
2018-03-20T14:47:01.213Z,102194.65
2018-03-20T14:50:05.640Z,102197.52
2018-03-20T14:53:08.953Z,102203.41
2018-03-20T14:56:12.231Z,102212.38
2018-03-20T14:59:22.969Z,102225.20
2018-03-20T15:02:27.177Z,102231.14
2018-03-20T15:05:30.321Z,102239.24
2018-03-20T15:08:33.516Z,102249.88
2018-03-20T15:11:36.657Z,102251.04
2018-03-20T15:14:39.863Z,102255.52
2018-03-20T15:17:46.272Z,102258.59
2018-03-20T15:20:50.438Z,102263.72
2018-03-20T15:23:54.660Z,102268.65
2018-03-20T15:26:57.820Z,102272.10
2018-03-20T15:30:01.064Z,102275.73
2018-03-20T15:33:09.905Z,102277.16
2018-03-20T15:36:13.386Z,102274.63
2018-03-20T15:39:22.016Z,102274.41
2018-03-20T15:42:25.232Z,102274.16
2018-03-20T15:45:28.368Z,102275.65
2018-03-20T15:48:33.516Z,102279.04
2018-03-20T15:51:36.732Z,102286.17
2018-03-20T15:54:40.605Z,102291.59
2018-03-20T15:57:43.792Z,102291.59
2018-03-20T16:00:47.957Z,102303.23
2018-03-20T16:03:52.328Z,102303.19
2018-03-20T16:06:57.485Z,102316.26
2018-03-20T16:10:00.636Z,102322.42
2018-03-20T16:13:04.580Z,102323.98
2018-03-20T16:16:07.768Z,102327.72
2018-03-20T16:19:11.933Z,102329.57
2018-03-20T16:22:15.061Z,102335.69
2018-03-20T16:25:23.710Z,102342.37
2018-03-20T16:28:28.056Z,102340.75
2018-03-20T16:31:33.498Z,102345.90
2018-03-20T16:34:36.774Z,102348.34
2018-03-20T16:37:41.092Z,102354.66
2018-03-20T16:40:44.297Z,102357.07
2018-03-20T16:43:47.631Z,102364.75
2018-03-20T16:46:52.901Z,102375.38
2018-03-20T16:49:56.193Z,102377.30
2018-03-20T16:52:59.969Z,102383.21
2018-03-20T16:56:03.273Z,102395.13
2018-03-20T16:59:06.629Z,102393.65
2018-03-20T17:02:09.853Z,102401.01
2018-03-20T17:05:13.030Z,102404.83
2018-03-20T17:08:16.346Z,102412.25
2018-03-20T17:11:19.542Z,102414.41
2018-03-20T17:14:22.794Z,102416.78
2018-03-20T17:17:25.994Z,102417.57
2018-03-20T17:20:29.287Z,102421.31
2018-03-20T17:23:32.690Z,102427.03
2018-03-20T17:26:35.979Z,102436.78
2018-03-20T17:29:39.294Z,102440.85
2018-03-20T17:32:42.474Z,102445.13
2018-03-20T17:35:45.710Z,102448.38
2018-03-20T17:38:49.293Z,102451.96
2018-03-20T17:41:52.573Z,102456.45
2018-03-20T17:44:55.839Z,102458.34
2018-03-20T17:47:59.202Z,102462.21
2018-03-20T17:51:02.459Z,102471.86
2018-03-20T17:54:05.711Z,102480.98
2018-03-20T17:57:08.962Z,102488.57
2018-03-20T18:00:12.201Z,102489.31
2018-03-20T18:03:15.489Z,102491.70
2018-03-20T18:06:18.701Z,102492.94
2018-03-20T18:09:22.010Z,102496.35
2018-03-20T18:12:25.298Z,102505.50
2018-03-20T18:15:28.611Z,102507.78
2018-03-20T18:18:31.925Z,102517.63
2018-03-20T18:21:35.257Z,102526.20
2018-03-20T18:24:38.628Z,102537.73
2018-03-20T18:27:41.889Z,102534.17
2018-03-20T18:30:45.116Z,102544.64
2018-03-20T18:33:48.328Z,102544.90
2018-03-20T18:36:51.750Z,102546.55
2018-03-20T18:39:55.077Z,102552.64
2018-03-20T18:42:58.342Z,102553.41
2018-03-20T18:46:01.581Z,102559.07
2018-03-20T18:49:04.998Z,102558.51
2018-03-20T18:52:08.399Z,102560.83
2018-03-20T18:55:11.683Z,102566.34
2018-03-20T18:58:15.742Z,102567.03
2018-03-20T19:01:19.007Z,102574.18
2018-03-20T19:04:22.459Z,102577.38
2018-03-20T19:07:25.630Z,102577.71
2018-03-20T19:10:28.918Z,102585.85
2018-03-20T19:13:32.198Z,102588.24
2018-03-20T19:16:35.501Z,102589.75
2018-03-20T19:19:38.730Z,102591.47
2018-03-20T19:22:41.922Z,102600.73
2018-03-20T19:25:45.166Z,102596.25
2018-03-20T19:28:48.463Z,102599.51
2018-03-20T19:31:51.694Z,102601.10
2018-03-20T19:34:54.817Z,102613.92
2018-03-20T19:37:58.001Z,102624.93
2018-03-20T19:41:01.353Z,102623.93
2018-03-20T19:44:04.482Z,102628.41
2018-03-20T19:47:07.735Z,102634.73
2018-03-20T19:50:10.970Z,102645.78
2018-03-20T19:53:14.229Z,102645.42
2018-03-20T19:56:17.541Z,102646.15
2018-03-20T19:59:20.834Z,102654.15
2018-03-20T20:02:24.015Z,102660.27
2018-03-20T20:05:27.178Z,102662.36
2018-03-20T20:08:30.337Z,102662.01
2018-03-20T20:11:33.534Z,102667.88
2018-03-20T20:14:36.717Z,102673.67
2018-03-20T20:17:39.890Z,102682.18
2018-03-20T20:20:43.111Z,102685.80
2018-03-20T20:23:46.284Z,102693.61
2018-03-20T20:26:49.586Z,102694.54
2018-03-20T20:29:52.909Z,102700.04
2018-03-20T20:32:56.115Z,102703.79
2018-03-20T20:35:59.360Z,102704.09
2018-03-20T20:39:02.665Z,102715.50
2018-03-20T20:42:06.021Z,102719.28
2018-03-20T20:45:09.271Z,102722.02
2018-03-20T20:48:12.573Z,102730.21
2018-03-20T20:51:15.874Z,102739.91
2018-03-20T20:54:19.107Z,102743.79
2018-03-20T20:57:22.770Z,102745.42
2018-03-20T21:00:26.078Z,102744.37
2018-03-20T21:03:29.308Z,102748.32
2018-03-20T21:06:32.492Z,102744.98
2018-03-20T21:09:35.736Z,102744.74
2018-03-20T21:12:39.084Z,102746.18
2018-03-20T21:15:42.334Z,102745.79
2018-03-20T21:18:45.643Z,102753.52
2018-03-20T21:21:48.975Z,102760.21
2018-03-20T21:24:52.145Z,102764.71
2018-03-20T21:27:55.315Z,102764.20
2018-03-20T21:30:58.442Z,102772.42
2018-03-20T21:34:01.878Z,102773.97
2018-03-20T21:37:06.220Z,102774.29
2018-03-20T21:40:09.562Z,102782.80
2018-03-20T21:43:13.649Z,102781.99
2018-03-20T21:46:16.929Z,102783.33
2018-03-20T21:49:20.421Z,102795.38
2018-03-20T21:52:30.286Z,102801.66
2018-03-20T21:55:33.637Z,102802.87
2018-03-20T21:58:39.991Z,102807.66
2018-03-20T22:01:44.824Z,102811.55
2018-03-20T22:04:48.148Z,102812.52
2018-03-20T22:07:51.473Z,102811.43
2018-03-20T22:10:55.356Z,102813.19
2018-03-20T22:13:58.779Z,102811.37
2018-03-20T22:17:05.445Z,102813.20
2018-03-20T22:20:08.809Z,102811.65
2018-03-20T22:23:16.816Z,102814.69
2018-03-20T22:26:20.130Z,102821.19
2018-03-20T22:29:23.408Z,102825.90
2018-03-20T22:32:26.600Z,102829.12
2018-03-20T22:35:30.125Z,102830.27
2018-03-20T22:38:39.052Z,102833.73
2018-03-20T22:41:42.334Z,102833.87
2018-03-20T22:44:59.255Z,102843.36
2018-03-20T22:48:02.530Z,102843.79
2018-03-20T22:51:06.805Z,102846.04
2018-03-20T22:54:11.271Z,102845.76
2018-03-20T22:57:14.549Z,102849.63
2018-03-20T23:00:27.677Z,102853.42
2018-03-20T23:03:31.939Z,102854.21
2018-03-20T23:06:35.232Z,102858.61
2018-03-20T23:09:38.517Z,102855.98
2018-03-20T23:12:45.989Z,102860.34
2018-03-20T23:15:49.206Z,102863.91
2018-03-20T23:18:53.542Z,102863.25
2018-03-20T23:22:08.138Z,102864.98
2018-03-20T23:25:13.359Z,102873.52
2018-03-20T23:28:16.608Z,102868.64
2018-03-20T23:31:19.852Z,102874.74
2018-03-20T23:34:23.416Z,102880.00
2018-03-20T23:37:26.602Z,102885.40
2018-03-20T23:40:30.866Z,102887.97
2018-03-20T23:43:34.097Z,102894.53
2018-03-20T23:46:37.366Z,102896.80
2018-03-20T23:49:42.320Z,102890.62
2018-03-20T23:52:47.224Z,102891.25
2018-03-20T23:55:51.532Z,102899.98
2018-03-20T23:58:54.801Z,102889.01
